createdAt,value
2022-11-03T00:02:11.144Z,21.67
2022-11-03T00:05:31.921Z,21.68
2022-11-03T00:08:41.494Z,21.69
2022-11-03T00:11:47.231Z,21.67
2022-11-03T00:14:52.027Z,21.67
2022-11-03T00:17:55.398Z,21.67
2022-11-03T00:21:02.029Z,21.67
2022-11-03T00:24:07.673Z,21.68
2022-11-03T00:27:11.502Z,21.67
2022-11-03T00:30:15.260Z,21.68
2022-11-03T00:33:19.580Z,21.68
2022-11-03T00:36:25.485Z,21.68
2022-11-03T00:39:30.485Z,21.69
2022-11-03T00:42:35.051Z,21.67
2022-11-03T00:45:38.398Z,21.66
2022-11-03T00:48:42.668Z,21.66
2022-11-03T00:51:46.277Z,21.66
2022-11-03T00:54:54.355Z,21.67
2022-11-03T00:58:03.734Z,21.66
2022-11-03T01:01:11.629Z,21.67
2022-11-03T01:04:33.711Z,21.65
2022-11-03T01:07:37.021Z,21.61
2022-11-03T01:11:01.629Z,21.64
2022-11-03T01:14:05.599Z,21.62
2022-11-03T01:17:11.436Z,21.63
2022-11-03T01:20:14.707Z,21.62
2022-11-03T01:23:17.895Z,21.64
2022-11-03T01:26:23.606Z,21.65
2022-11-03T01:29:27.071Z,21.61
2022-11-03T01:32:30.416Z,21.61
2022-11-03T01:35:34.155Z,21.61
2022-11-03T01:38:38.955Z,21.61
2022-11-03T01:41:47.214Z,21.61
2022-11-03T01:44:50.519Z,21.59
2022-11-03T01:47:54.099Z,21.58
2022-11-03T01:50:57.503Z,21.60
2022-11-03T01:54:09.053Z,21.59
2022-11-03T01:57:21.146Z,21.59
2022-11-03T02:04:18.385Z,21.56
2022-11-03T02:07:33.696Z,21.56
2022-11-03T02:10:43.652Z,21.55
2022-11-03T02:13:57.988Z,21.54
2022-11-03T02:17:08.859Z,21.53
2022-11-03T02:20:17.663Z,21.52
2022-11-03T02:23:38.877Z,21.55
2022-11-03T02:27:02.658Z,21.51
2022-11-03T02:30:10.030Z,21.49
2022-11-03T02:33:32.725Z,21.54
2022-11-03T02:36:46.553Z,21.50
2022-11-03T02:43:21.075Z,21.50
2022-11-03T02:46:33.700Z,21.50
2022-11-03T02:49:43.714Z,21.49
2022-11-03T02:56:17.637Z,21.48
2022-11-03T02:59:28.635Z,21.48
2022-11-03T03:02:42.287Z,21.48
2022-11-03T03:05:49.447Z,21.47
2022-11-03T03:09:01.560Z,21.48
2022-11-03T03:15:55.040Z,21.47
2022-11-03T03:19:14.683Z,21.45
2022-11-03T03:22:29.615Z,21.42
2022-11-03T03:25:40.389Z,21.41
2022-11-03T03:28:53.062Z,21.40
2022-11-03T03:32:05.700Z,21.39
2022-11-03T03:35:17.145Z,21.38
2022-11-03T03:38:29.048Z,21.36
2022-11-03T03:41:35.399Z,21.34
2022-11-03T03:44:41.961Z,21.34
2022-11-03T03:47:49.983Z,21.36
2022-11-03T03:50:56.580Z,21.33
2022-11-03T03:54:00.021Z,21.34
2022-11-03T03:57:07.904Z,21.33
2022-11-03T04:00:15.986Z,21.34
2022-11-03T04:03:24.302Z,21.33
2022-11-03T04:06:27.788Z,21.29
2022-11-03T04:09:31.298Z,21.28
2022-11-03T04:12:52.051Z,21.28
2022-11-03T04:16:13.174Z,21.26
2022-11-03T04:19:35.223Z,21.26
2022-11-03T04:22:39.169Z,21.25
2022-11-03T04:25:48.813Z,21.26
2022-11-03T04:28:55.159Z,21.26
2022-11-03T04:31:59.097Z,21.25
2022-11-03T04:35:15.673Z,21.25
2022-11-03T04:38:25.601Z,21.25
2022-11-03T04:41:34.013Z,21.22
2022-11-03T04:44:37.430Z,21.21
2022-11-03T04:47:43.944Z,21.20
2022-11-03T04:54:24.140Z,21.18
2022-11-03T04:57:29.890Z,21.18
2022-11-03T05:00:33.724Z,21.17
2022-11-03T05:03:43.444Z,21.18
2022-11-03T05:07:03.245Z,21.18
2022-11-03T05:10:16.896Z,21.16
2022-11-03T05:16:54.991Z,21.15
2022-11-03T05:20:03.516Z,21.16
2022-11-03T05:23:13.235Z,21.15
2022-11-03T05:26:25.979Z,21.15
2022-11-03T05:29:36.783Z,21.09
2022-11-03T05:32:40.143Z,21.02
2022-11-03T05:35:43.371Z,21.00
2022-11-03T05:38:48.641Z,21.01
2022-11-03T05:41:52.182Z,20.98
2022-11-03T05:44:56.485Z,20.97
2022-11-03T05:48:01.591Z,20.99
2022-11-03T05:51:20.193Z,21.03
2022-11-03T05:54:30.563Z,21.01
2022-11-03T05:57:40.889Z,21.03
2022-11-03T06:01:23.728Z,21.00
2022-11-03T06:09:57.164Z,20.97
2022-11-03T06:13:12.457Z,21.06
2022-11-03T06:16:37.721Z,21.14
2022-11-03T06:19:47.626Z,21.14
2022-11-03T06:22:56.249Z,21.21
2022-11-03T06:26:04.343Z,21.31
2022-11-03T06:29:15.386Z,21.42
2022-11-03T06:32:19.732Z,21.49
2022-11-03T06:35:23.327Z,21.56
2022-11-03T06:38:33.559Z,21.60
2022-11-03T06:41:39.870Z,21.63
2022-11-03T06:44:47.255Z,21.64
2022-11-03T06:47:53.123Z,21.70
2022-11-03T06:51:00.035Z,21.72
2022-11-03T06:54:12.096Z,21.75
2022-11-03T06:57:19.859Z,21.77
2022-11-03T07:00:34.272Z,21.79
2022-11-03T07:03:38.720Z,21.80
2022-11-03T07:06:46.768Z,21.82
2022-11-03T07:09:55.955Z,21.82
2022-11-03T07:13:07.546Z,21.86
2022-11-03T07:16:18.890Z,21.88
2022-11-03T07:19:27.480Z,21.88
2022-11-03T07:22:30.826Z,21.89
2022-11-03T07:25:34.075Z,21.91
2022-11-03T07:28:40.826Z,21.95
2022-11-03T07:31:44.093Z,21.96
2022-11-03T07:34:48.783Z,21.98
2022-11-03T07:37:54.750Z,22.00
2022-11-03T07:41:01.255Z,22.00
2022-11-03T07:44:15.255Z,22.02
2022-11-03T07:47:23.117Z,21.98
2022-11-03T07:50:26.863Z,21.93
2022-11-03T07:53:41.135Z,21.92
2022-11-03T07:56:49.388Z,21.87
2022-11-03T07:59:59.969Z,21.84
2022-11-03T08:03:04.757Z,21.81
2022-11-03T08:06:09.998Z,21.79
2022-11-03T08:09:13.951Z,21.77
2022-11-03T08:12:17.315Z,21.77
2022-11-03T08:15:21.884Z,21.79
2022-11-03T08:18:25.689Z,21.80
2022-11-03T08:21:28.948Z,21.09
2022-11-03T08:24:32.380Z,20.10
2022-11-03T08:27:35.724Z,19.85
2022-11-03T08:30:40.608Z,20.18
2022-11-03T08:33:44.072Z,20.44
2022-11-03T08:36:47.441Z,20.63
2022-11-03T08:39:50.844Z,20.78
2022-11-03T08:42:54.521Z,20.88
2022-11-03T08:46:08.293Z,20.99
2022-11-03T08:49:18.918Z,21.04
2022-11-03T08:52:22.045Z,21.12
2022-11-03T08:55:25.982Z,21.18
2022-11-03T08:58:29.278Z,21.25
2022-11-03T09:01:34.028Z,21.30
2022-11-03T09:04:37.512Z,21.36
2022-11-03T09:11:04.927Z,21.46
2022-11-03T09:14:08.503Z,21.49
2022-11-03T09:17:13.273Z,21.51
2022-11-03T09:20:17.108Z,21.54
2022-11-03T09:23:20.312Z,21.54
2022-11-03T09:26:24.352Z,21.54
2022-11-03T09:29:32.864Z,21.57
2022-11-03T09:32:46.279Z,21.62
2022-11-03T09:35:49.420Z,21.69
2022-11-03T09:38:52.954Z,21.72
2022-11-03T09:42:00.195Z,21.73
2022-11-03T09:45:05.278Z,21.74
2022-11-03T09:48:12.687Z,21.80
2022-11-03T09:51:22.687Z,21.83
2022-11-03T09:54:28.032Z,21.87
2022-11-03T09:57:32.469Z,21.87
2022-11-03T10:00:35.640Z,21.84
2022-11-03T10:03:40.754Z,21.84
2022-11-03T10:06:44.246Z,21.84
2022-11-03T10:09:52.900Z,21.86
2022-11-03T10:12:56.738Z,21.89
2022-11-03T10:16:03.005Z,21.93
2022-11-03T10:19:12.908Z,21.93
2022-11-03T10:22:16.786Z,21.87
2022-11-03T10:25:38.679Z,21.88
2022-11-03T10:29:00.123Z,21.87
2022-11-03T10:32:03.138Z,21.82
2022-11-03T10:35:35.674Z,21.91
2022-11-03T10:38:38.803Z,21.84
2022-11-03T10:41:58.432Z,21.92
2022-11-03T10:45:17.494Z,21.91
2022-11-03T10:48:20.941Z,21.88
2022-11-03T10:51:25.608Z,21.91
2022-11-03T10:54:30.125Z,21.88
2022-11-03T10:57:33.371Z,21.88
2022-11-03T11:00:36.961Z,21.89
2022-11-03T11:03:44.249Z,21.93
2022-11-03T11:06:49.569Z,21.96
2022-11-03T11:09:54.245Z,21.97
2022-11-03T11:13:26.708Z,22.03
2022-11-03T11:16:52.007Z,22.03
2022-11-03T11:20:33.905Z,22.03
2022-11-03T11:23:48.858Z,22.01
2022-11-03T11:26:52.459Z,22.00
2022-11-03T11:29:55.769Z,22.05
2022-11-03T11:33:02.015Z,22.08
2022-11-03T11:36:26.544Z,22.16
2022-11-03T11:39:47.036Z,22.15
2022-11-03T11:43:27.186Z,22.17
2022-11-03T11:46:42.484Z,22.15
2022-11-03T11:49:46.655Z,22.15
2022-11-03T11:52:58.789Z,22.17
2022-11-03T11:56:04.358Z,22.16
2022-11-03T11:59:24.810Z,22.21
2022-11-03T12:02:31.770Z,22.21
2022-11-03T12:05:36.963Z,22.20
2022-11-03T12:08:40.838Z,22.21
2022-11-03T12:11:50.251Z,22.23
2022-11-03T12:14:55.903Z,22.22
2022-11-03T12:17:59.943Z,22.21
2022-11-03T12:21:05.776Z,22.22
2022-11-03T12:24:28.782Z,22.30
2022-11-03T12:27:44.341Z,22.32
2022-11-03T12:30:48.132Z,22.29
2022-11-03T12:33:51.552Z,22.31
2022-11-03T12:36:56.448Z,22.29
2022-11-03T12:40:00.178Z,22.29
2022-11-03T12:43:05.687Z,22.31
2022-11-03T12:46:09.305Z,22.26
2022-11-03T12:49:13.176Z,22.24
2022-11-03T13:26:35.908Z,23.49
2022-11-03T13:29:40.349Z,23.36
2022-11-03T13:32:43.704Z,23.36
2022-11-03T13:35:47.388Z,23.37
2022-11-03T13:38:51.055Z,23.35
2022-11-03T13:41:56.186Z,23.34
2022-11-03T13:45:00.914Z,23.36
2022-11-03T13:51:29.445Z,23.40
2022-11-03T14:01:22.992Z,23.30
2022-11-03T14:04:42.413Z,23.30
2022-11-03T14:07:46.960Z,23.26
2022-11-03T14:10:50.291Z,23.25
2022-11-03T14:13:55.244Z,23.22
2022-11-03T14:16:58.765Z,23.19
2022-11-03T14:20:04.863Z,23.18
2022-11-03T14:23:08.650Z,23.16
2022-11-03T14:26:23.670Z,23.15
2022-11-03T14:29:37.425Z,23.08
2022-11-03T14:32:41.345Z,23.09
2022-11-03T14:35:44.697Z,23.14
2022-11-03T14:38:50.076Z,23.15
2022-11-03T14:42:05.463Z,23.17
2022-11-03T14:45:11.696Z,23.25
2022-11-03T14:48:15.057Z,23.28
2022-11-03T14:51:18.567Z,23.26
2022-11-03T14:54:21.980Z,23.25
2022-11-03T14:57:25.607Z,23.23
2022-11-03T15:00:30.397Z,23.26
2022-11-03T15:03:33.897Z,23.26
2022-11-03T15:06:37.220Z,23.26
2022-11-03T15:09:40.875Z,23.12
2022-11-03T15:12:44.051Z,22.91
2022-11-03T15:15:48.882Z,22.71
2022-11-03T15:18:52.857Z,22.56
2022-11-03T15:21:56.594Z,22.47
2022-11-03T15:25:18.078Z,22.39
2022-11-03T15:28:23.680Z,22.28
2022-11-03T15:31:28.438Z,22.26
2022-11-03T15:34:32.163Z,22.22
2022-11-03T15:37:35.361Z,22.17
2022-11-03T15:40:38.891Z,22.15
2022-11-03T15:43:42.534Z,22.14
2022-11-03T15:46:47.515Z,22.08
2022-11-03T15:49:50.911Z,21.98
2022-11-03T15:52:54.910Z,21.88
2022-11-03T15:55:58.546Z,21.84
2022-11-03T15:59:02.322Z,21.85
2022-11-03T16:02:14.073Z,21.87
2022-11-03T16:05:31.557Z,21.84
2022-11-03T16:08:34.979Z,21.83
2022-11-03T16:11:38.490Z,21.80
2022-11-03T16:14:41.884Z,21.78
2022-11-03T16:17:46.795Z,21.74
2022-11-03T16:20:50.130Z,21.70
2022-11-03T16:23:53.789Z,21.67
2022-11-03T16:26:57.055Z,21.62
2022-11-03T16:30:00.715Z,21.59
2022-11-03T16:33:05.468Z,21.57
2022-11-03T16:36:10.084Z,21.55
2022-11-03T16:39:13.428Z,21.53
2022-11-03T16:42:16.932Z,21.52
2022-11-03T16:45:23.399Z,21.49
2022-11-03T16:48:28.412Z,21.48
2022-11-03T16:51:31.725Z,21.45
2022-11-03T16:54:35.285Z,21.43
2022-11-03T16:57:39.338Z,21.42
2022-11-03T17:00:43.680Z,21.42
2022-11-03T17:03:48.456Z,21.42
2022-11-03T17:06:52.053Z,21.38
2022-11-03T17:09:55.692Z,21.39
2022-11-03T17:12:59.644Z,21.38
2022-11-03T17:16:03.035Z,21.32
2022-11-03T17:19:08.062Z,21.30
2022-11-03T17:22:11.433Z,21.25
2022-11-03T17:25:15.263Z,21.26
2022-11-03T17:28:19.242Z,21.16
2022-11-03T17:31:22.830Z,21.06
2022-11-03T17:34:27.718Z,21.09
2022-11-03T17:37:31.871Z,21.10
2022-11-03T17:40:36.202Z,21.13
2022-11-03T17:43:42.303Z,21.13
2022-11-03T17:46:45.730Z,21.18
2022-11-03T17:49:51.491Z,21.20
2022-11-03T17:52:55.581Z,21.21
2022-11-03T17:56:28.344Z,21.23
2022-11-03T17:59:28.580Z,21.23
2022-11-03T18:02:35.440Z,21.25
2022-11-03T18:05:40.576Z,21.27
2022-11-03T18:08:44.905Z,21.25
2022-11-03T18:12:05.705Z,21.23
2022-11-03T18:15:17.628Z,21.23
2022-11-03T18:18:27.161Z,21.24
2022-11-03T18:21:32.399Z,21.23
2022-11-03T18:24:35.825Z,21.24
2022-11-03T18:27:39.368Z,21.24
2022-11-03T18:30:45.485Z,21.26
2022-11-03T18:33:50.133Z,21.24
2022-11-03T18:36:55.400Z,21.23
2022-11-03T18:39:59.617Z,21.19
2022-11-03T18:43:12.321Z,21.21
2022-11-03T18:46:16.268Z,21.23
2022-11-03T18:49:20.473Z,21.29
2022-11-03T18:52:25.523Z,21.34
2022-11-03T18:55:29.064Z,21.38
2022-11-03T18:58:35.155Z,21.39
2022-11-03T19:01:38.813Z,21.38
2022-11-03T19:04:42.976Z,21.38
2022-11-03T19:07:53.005Z,21.42
2022-11-03T19:11:03.570Z,21.42
2022-11-03T19:14:09.052Z,21.40
2022-11-03T19:17:25.025Z,21.22
2022-11-03T19:20:28.480Z,21.22
2022-11-03T19:23:33.523Z,21.25
2022-11-03T19:26:45.343Z,21.28
2022-11-03T19:29:50.548Z,21.24
2022-11-03T19:32:57.959Z,21.25
2022-11-03T19:36:02.109Z,21.30
2022-11-03T19:39:26.258Z,21.39
2022-11-03T19:42:31.177Z,21.37
2022-11-03T19:45:34.516Z,21.42
2022-11-03T19:48:38.701Z,21.44
2022-11-03T19:51:42.570Z,21.46
2022-11-03T19:54:51.671Z,21.49
2022-11-03T19:57:55.000Z,21.48
2022-11-03T20:01:02.783Z,21.47
2022-11-03T20:04:09.681Z,21.49
2022-11-03T20:07:15.159Z,21.49
2022-11-03T20:10:20.961Z,21.52
2022-11-03T20:13:28.738Z,21.53
2022-11-03T20:16:32.511Z,21.55
2022-11-03T20:19:36.064Z,21.54
2022-11-03T20:22:42.377Z,21.64
2022-11-03T20:25:47.971Z,21.74
2022-11-03T20:28:53.887Z,21.75
2022-11-03T20:31:58.636Z,21.76
2022-11-03T20:35:01.951Z,21.76
2022-11-03T20:38:05.893Z,21.77
2022-11-03T20:41:16.787Z,21.78
2022-11-03T20:44:20.670Z,21.75
2022-11-03T20:47:23.995Z,21.75
2022-11-03T20:50:30.982Z,21.76
2022-11-03T20:53:34.505Z,21.74
2022-11-03T20:56:39.454Z,21.69
2022-11-03T20:59:42.971Z,21.66
2022-11-03T21:02:47.424Z,21.64
2022-11-03T21:05:51.402Z,21.59
2022-11-03T21:08:55.239Z,21.59
2022-11-03T21:11:59.941Z,21.60
2022-11-03T21:15:23.577Z,21.59
2022-11-03T21:18:47.716Z,21.57
2022-11-03T21:21:51.465Z,21.56
2022-11-03T21:24:54.779Z,21.56
2022-11-03T21:27:59.629Z,21.57
2022-11-03T21:31:03.274Z,21.56
2022-11-03T21:34:06.902Z,21.54
2022-11-03T21:37:14.982Z,21.52
2022-11-03T21:40:18.877Z,21.46
2022-11-03T21:43:41.379Z,21.46
2022-11-03T21:46:46.667Z,21.45
2022-11-03T21:49:49.316Z,21.48
2022-11-03T21:52:53.034Z,21.47
2022-11-03T21:55:56.456Z,21.46
2022-11-03T21:59:01.446Z,21.46
2022-11-03T22:02:06.831Z,21.44
2022-11-03T22:05:11.116Z,21.44
2022-11-03T22:08:14.815Z,21.45
2022-11-03T22:11:24.681Z,21.44
2022-11-03T22:14:49.450Z,21.42
2022-11-03T22:17:52.332Z,21.39
2022-11-03T22:21:16.632Z,21.41
2022-11-03T22:24:38.195Z,21.38
2022-11-03T22:27:42.231Z,21.37
2022-11-03T22:31:04.498Z,21.39
2022-11-03T22:34:25.404Z,21.34
2022-11-03T22:40:48.564Z,21.28
2022-11-03T22:47:03.026Z,21.07
2022-11-03T22:50:07.901Z,21.09
2022-11-03T22:53:29.113Z,21.12
2022-11-03T22:56:33.731Z,21.16
2022-11-03T22:59:37.083Z,21.20
2022-11-03T23:02:42.171Z,21.22
2022-11-03T23:05:45.627Z,21.22
2022-11-03T23:08:51.082Z,21.21
2022-11-03T23:11:54.377Z,21.20
2022-11-03T23:15:15.644Z,21.23
2022-11-03T23:18:37.986Z,21.22
2022-11-03T23:21:41.690Z,21.19
2022-11-03T23:24:59.225Z,21.22
2022-11-03T23:28:02.964Z,21.22
2022-11-03T23:31:06.982Z,21.23
2022-11-03T23:34:14.501Z,21.22
2022-11-03T23:37:17.791Z,21.16
2022-11-03T23:40:30.346Z,21.11
2022-11-03T23:43:34.387Z,21.06
2022-11-03T23:46:55.708Z,21.03
2022-11-03T23:50:00.984Z,21.01
2022-11-03T23:53:04.862Z,20.95
2022-11-03T23:56:27.087Z,20.94
2022-11-03T23:59:32.972Z,20.94
